createdAt,value
2017-09-13T00:00:30.313Z,99967.69
2017-09-13T00:02:57.806Z,99964.26
2017-09-13T00:05:25.336Z,99958.77
2017-09-13T00:07:52.781Z,99954.56
2017-09-13T00:10:20.254Z,99956.39
2017-09-13T00:12:47.729Z,99946.31
2017-09-13T00:15:19.379Z,99938.97
2017-09-13T00:17:46.810Z,99927.39
2017-09-13T00:20:14.479Z,99922.78
2017-09-13T00:22:41.909Z,99922.84
2017-09-13T00:25:09.384Z,99913.39
2017-09-13T00:27:36.830Z,99912.51
2017-09-13T00:30:04.267Z,99913.98
2017-09-13T00:32:31.785Z,99907.60
2017-09-13T00:34:59.232Z,99917.75
2017-09-13T00:37:26.693Z,99908.13
2017-09-13T00:39:54.142Z,99903.91
2017-09-13T00:42:21.621Z,99909.36
2017-09-13T00:44:49.055Z,99896.43
2017-09-13T00:47:16.531Z,99909.08
2017-09-13T00:49:43.966Z,99901.38
2017-09-13T00:52:11.430Z,99891.64
2017-09-13T00:54:38.995Z,99886.36
2017-09-13T00:57:06.462Z,99884.70
2017-09-13T00:59:33.894Z,99885.11
2017-09-13T01:02:01.373Z,99882.79
2017-09-13T01:04:28.819Z,99872.81
2017-09-13T01:06:56.429Z,99854.98
2017-09-13T01:09:23.877Z,99834.80
2017-09-13T01:11:51.338Z,99826.78
2017-09-13T01:14:18.783Z,99817.59
2017-09-13T01:16:46.298Z,99815.63
2017-09-13T01:19:13.740Z,99815.44
2017-09-13T01:21:41.189Z,99810.95
2017-09-13T01:24:08.646Z,99801.61
2017-09-13T01:26:36.097Z,99798.61
2017-09-13T01:29:03.559Z,99789.31
2017-09-13T01:31:30.999Z,99791.67
2017-09-13T01:33:58.515Z,99785.16
2017-09-13T01:36:25.959Z,99775.71
2017-09-13T01:38:53.422Z,99759.48
2017-09-13T01:41:20.864Z,99739.45
2017-09-13T01:43:48.315Z,99725.77
2017-09-13T01:46:15.759Z,99715.84
2017-09-13T01:48:43.325Z,99709.05
2017-09-13T01:51:10.765Z,99698.19
2017-09-13T01:53:38.317Z,99694.34
2017-09-13T01:56:05.811Z,99688.75
2017-09-13T01:58:33.276Z,99680.87
2017-09-13T02:01:00.809Z,99681.57
2017-09-13T02:03:28.279Z,99687.22
2017-09-13T02:05:55.923Z,99683.03
2017-09-13T02:08:23.463Z,99670.71
2017-09-13T02:10:50.908Z,99678.42
2017-09-13T02:13:18.342Z,99659.72
2017-09-13T02:15:45.809Z,99655.84
2017-09-13T02:18:13.288Z,99657.34
2017-09-13T02:20:40.760Z,99654.77
2017-09-13T02:23:08.208Z,99658.11
2017-09-13T02:25:35.662Z,99652.44
2017-09-13T02:28:03.156Z,99648.25
2017-09-13T02:30:30.623Z,99635.80
2017-09-13T02:32:58.153Z,99635.28
2017-09-13T02:35:25.728Z,99624.03
2017-09-13T02:37:53.167Z,99621.82
2017-09-13T02:40:20.736Z,99614.20
2017-09-13T02:42:48.212Z,99608.55
2017-09-13T02:45:15.646Z,99608.75
2017-09-13T02:47:43.118Z,99591.52
2017-09-13T02:50:10.570Z,99593.19
2017-09-13T02:52:38.097Z,99578.36
2017-09-13T02:55:05.531Z,99572.59
2017-09-13T02:57:33.024Z,99559.28
2017-09-13T03:00:00.452Z,99557.43
2017-09-13T03:02:27.903Z,99550.39
2017-09-13T03:04:55.361Z,99552.24
2017-09-13T03:07:22.842Z,99541.84
2017-09-13T03:09:50.368Z,99536.16
2017-09-13T03:12:17.858Z,99538.57
2017-09-13T03:14:45.298Z,99531.13
2017-09-13T03:17:12.733Z,99510.45
2017-09-13T03:19:40.191Z,99504.92
2017-09-13T03:22:07.694Z,99503.54
2017-09-13T03:24:35.160Z,99502.78
2017-09-13T03:27:02.736Z,99498.87
2017-09-13T03:29:30.273Z,99499.65
2017-09-13T03:31:57.707Z,99484.78
2017-09-13T03:34:25.156Z,99479.72
2017-09-13T03:36:52.598Z,99480.30
2017-09-13T03:39:20.303Z,99464.05
2017-09-13T03:41:47.759Z,99466.34
2017-09-13T03:44:15.225Z,99463.80
2017-09-13T03:46:42.714Z,99464.66
2017-09-13T03:49:10.174Z,99454.55
2017-09-13T03:51:37.872Z,99448.72
2017-09-13T03:54:05.329Z,99439.88
2017-09-13T03:56:32.796Z,99436.95
2017-09-13T03:59:00.226Z,99423.19
2017-09-13T04:01:27.703Z,99420.06
2017-09-13T04:03:55.144Z,99409.62
2017-09-13T04:06:22.606Z,99416.28
2017-09-13T04:08:50.152Z,99403.62
2017-09-13T04:11:17.609Z,99408.13
2017-09-13T04:13:45.037Z,99411.01
2017-09-13T04:16:12.514Z,99412.14
2017-09-13T04:18:40.038Z,99396.03
2017-09-13T04:21:07.509Z,99384.15
2017-09-13T04:23:34.942Z,99393.42
2017-09-13T04:26:02.374Z,99396.64
2017-09-13T04:28:29.860Z,99388.63
2017-09-13T04:30:57.407Z,99389.13
2017-09-13T04:33:24.966Z,99409.64
2017-09-13T04:35:52.411Z,99410.98
2017-09-13T04:38:19.910Z,99404.52
2017-09-13T04:40:47.367Z,99394.91
2017-09-13T04:43:14.855Z,99410.30
2017-09-13T04:45:42.307Z,99408.59
2017-09-13T04:48:09.795Z,99402.72
2017-09-13T04:50:37.230Z,99406.34
2017-09-13T04:53:04.767Z,99412.89
2017-09-13T04:55:32.203Z,99393.07
2017-09-13T04:57:59.697Z,99400.08
2017-09-13T05:00:27.125Z,99394.37
2017-09-13T05:02:54.664Z,99405.83
2017-09-13T05:05:22.107Z,99402.30
2017-09-13T05:07:49.575Z,99397.77
2017-09-13T05:10:17.065Z,99394.84
2017-09-13T05:12:44.563Z,99395.00
2017-09-13T05:15:12.055Z,99388.20
2017-09-13T05:17:39.598Z,99390.56
2017-09-13T05:20:07.148Z,99378.08
2017-09-13T05:22:34.585Z,99368.30
2017-09-13T05:25:02.105Z,99378.95
2017-09-13T05:27:29.532Z,99374.37
2017-09-13T05:29:57.070Z,99376.00
2017-09-13T05:32:24.511Z,99368.59
2017-09-13T05:34:51.969Z,99361.98
2017-09-13T05:37:19.401Z,99358.46
2017-09-13T05:39:46.853Z,99359.94
2017-09-13T05:42:14.316Z,99362.47
2017-09-13T05:44:41.774Z,99362.17
2017-09-13T05:47:09.205Z,99356.19
2017-09-13T05:49:36.658Z,99358.55
2017-09-13T05:52:04.104Z,99354.67
2017-09-13T05:54:31.583Z,99359.69
2017-09-13T05:56:59.035Z,99346.28
2017-09-13T05:59:26.574Z,99348.64
2017-09-13T06:01:54.253Z,99344.30
2017-09-13T06:04:21.730Z,99343.03
2017-09-13T06:06:49.195Z,99333.20
2017-09-13T06:09:16.650Z,99334.70
2017-09-13T06:11:44.091Z,99336.61
2017-09-13T06:14:11.756Z,99339.33
2017-09-13T06:16:39.223Z,99327.86
2017-09-13T06:19:06.721Z,99327.83
2017-09-13T06:21:34.174Z,99330.14
2017-09-13T06:24:01.601Z,99324.20
2017-09-13T06:26:29.077Z,99325.47
2017-09-13T06:28:56.510Z,99317.34
2017-09-13T06:31:23.991Z,99324.09
2017-09-13T06:33:51.440Z,99324.44
2017-09-13T06:36:18.904Z,99328.95
2017-09-13T06:38:46.363Z,99316.65
2017-09-13T06:41:13.817Z,99320.73
2017-09-13T06:43:41.256Z,99314.13
2017-09-13T06:46:08.710Z,99310.70
2017-09-13T06:48:36.144Z,99306.80
2017-09-13T06:51:03.620Z,99303.73
2017-09-13T06:53:31.085Z,99303.01
2017-09-13T06:55:58.559Z,99295.13
2017-09-13T06:58:25.994Z,99283.52
2017-09-13T07:00:53.537Z,99295.09
2017-09-13T07:03:20.974Z,99287.53
2017-09-13T07:05:48.495Z,99282.66
2017-09-13T07:08:15.934Z,99273.86
2017-09-13T07:10:43.399Z,99266.73
2017-09-13T07:13:12.327Z,99277.88
2017-09-13T07:15:39.789Z,99275.12
2017-09-13T07:18:08.126Z,99278.70
2017-09-13T07:20:35.598Z,99273.89
2017-09-13T07:23:03.043Z,99269.43
2017-09-13T07:25:30.480Z,99273.67
2017-09-13T07:27:57.948Z,99272.16
2017-09-13T07:30:25.404Z,99270.65
2017-09-13T07:32:52.871Z,99266.58
2017-09-13T07:35:20.311Z,99269.48
2017-09-13T07:37:47.762Z,99263.15
2017-09-13T07:40:15.198Z,99258.30
2017-09-13T07:42:42.697Z,99264.66
2017-09-13T07:45:10.153Z,99271.23
2017-09-13T07:47:37.724Z,99266.17
2017-09-13T07:50:05.161Z,99281.28
2017-09-13T07:52:32.647Z,99277.87
2017-09-13T07:55:00.083Z,99283.38
2017-09-13T07:57:27.557Z,99289.23
2017-09-13T07:59:55.134Z,99279.16
2017-09-13T08:02:22.585Z,99290.08
2017-09-13T08:04:50.102Z,99276.26
2017-09-13T08:07:17.548Z,99278.19
2017-09-13T08:09:45.006Z,99281.02
2017-09-13T08:12:12.577Z,99291.53
2017-09-13T08:14:40.054Z,99288.26
2017-09-13T08:17:07.502Z,99287.72
2017-09-13T08:19:34.968Z,99303.27
2017-09-13T08:22:02.431Z,99289.65
2017-09-13T08:24:29.891Z,99277.70
2017-09-13T08:26:57.330Z,99281.77
2017-09-13T08:29:24.787Z,99280.80
2017-09-13T08:31:52.226Z,99293.20
2017-09-13T08:34:19.694Z,99288.91
2017-09-13T08:36:47.152Z,99301.06
2017-09-13T08:39:14.595Z,99301.70
2017-09-13T08:41:42.095Z,99285.57
2017-09-13T08:44:09.522Z,99281.91
2017-09-13T08:46:36.987Z,99286.66
2017-09-13T08:49:04.541Z,99278.44
2017-09-13T08:51:31.998Z,99273.83
2017-09-13T08:53:59.459Z,99284.23
2017-09-13T08:56:26.939Z,99274.85
2017-09-13T08:58:54.456Z,99270.22
2017-09-13T09:01:21.920Z,99274.38
2017-09-13T09:03:49.355Z,99275.02
2017-09-13T09:06:16.815Z,99278.14
2017-09-13T09:08:44.252Z,99268.75
2017-09-13T09:11:11.740Z,99273.38
2017-09-13T09:13:39.169Z,99268.31
2017-09-13T09:16:06.647Z,99260.19
2017-09-13T09:18:34.107Z,99264.62
2017-09-13T09:21:01.546Z,99257.61
2017-09-13T09:23:28.997Z,99247.20
2017-09-13T09:25:56.519Z,99262.56
2017-09-13T09:28:23.995Z,99251.86
2017-09-13T09:30:51.432Z,99253.87
2017-09-13T09:33:18.943Z,99254.19
2017-09-13T09:35:46.392Z,99249.89
2017-09-13T09:38:13.846Z,99257.09
2017-09-13T09:40:41.287Z,99251.08
2017-09-13T09:43:08.780Z,99254.98
2017-09-13T09:45:36.469Z,99256.50
2017-09-13T09:48:03.953Z,99254.14
2017-09-13T09:50:31.411Z,99245.08
2017-09-13T09:52:58.863Z,99246.87
2017-09-13T09:55:26.344Z,99237.91
2017-09-13T09:57:53.847Z,99237.13
2017-09-13T10:00:21.301Z,99233.75
2017-09-13T10:02:48.771Z,99234.91
2017-09-13T10:05:16.237Z,99232.61
2017-09-13T10:07:43.755Z,99226.99
2017-09-13T10:10:11.228Z,99224.34
2017-09-13T10:12:38.667Z,99213.73
2017-09-13T10:15:06.133Z,99217.50
2017-09-13T10:17:33.710Z,99220.75
2017-09-13T10:20:01.229Z,99211.02
2017-09-13T10:22:28.671Z,99213.36
2017-09-13T10:24:56.122Z,99212.98
2017-09-13T10:27:23.611Z,99205.67
2017-09-13T10:29:51.215Z,99207.33
2017-09-13T10:32:19.343Z,99200.98
2017-09-13T10:34:46.812Z,99207.92
2017-09-13T10:37:14.313Z,99207.56
2017-09-13T10:39:41.779Z,99209.95
2017-09-13T10:42:09.297Z,99217.94
2017-09-13T10:44:37.097Z,99207.64
2017-09-13T10:47:04.599Z,99218.81
2017-09-13T10:49:32.156Z,99212.16
2017-09-13T10:51:59.614Z,99215.57
2017-09-13T10:54:27.070Z,99217.48
2017-09-13T10:56:54.985Z,99225.31
2017-09-13T10:59:22.440Z,99232.83
2017-09-13T11:01:49.903Z,99245.16
2017-09-13T11:04:17.403Z,99249.91
2017-09-13T11:06:44.888Z,99253.20
2017-09-13T11:09:12.372Z,99269.14
2017-09-13T11:11:39.838Z,99296.28
2017-09-13T11:14:07.278Z,99298.83
2017-09-13T11:16:34.742Z,99308.68
2017-09-13T11:19:02.238Z,99314.38
2017-09-13T11:21:29.692Z,99311.82
2017-09-13T11:23:57.127Z,99298.81
2017-09-13T11:26:24.601Z,99314.05
2017-09-13T11:28:52.067Z,99306.97
2017-09-13T11:31:19.535Z,99314.80
2017-09-13T11:33:46.966Z,99304.32
2017-09-13T11:36:14.444Z,99316.88
2017-09-13T11:38:41.890Z,99325.30
2017-09-13T11:41:09.396Z,99333.09
2017-09-13T11:43:36.843Z,99343.57
2017-09-13T11:46:04.338Z,99352.72
2017-09-13T11:48:31.794Z,99364.93
2017-09-13T11:50:59.286Z,99350.76
2017-09-13T11:53:27.286Z,99345.95
2017-09-13T11:55:54.859Z,99344.36
2017-09-13T11:58:22.362Z,99351.46
2017-09-13T12:00:49.815Z,99351.19
2017-09-13T12:03:17.280Z,99348.17
2017-09-13T12:05:44.713Z,99350.38
2017-09-13T12:08:12.451Z,99350.44
2017-09-13T12:10:39.939Z,99347.59
2017-09-13T12:13:07.418Z,99352.41
2017-09-13T12:15:34.981Z,99350.67
2017-09-13T12:18:02.533Z,99350.20
2017-09-13T12:20:29.965Z,99340.47
2017-09-13T12:22:57.438Z,99356.08
2017-09-13T12:25:24.905Z,99353.19
2017-09-13T12:27:52.352Z,99357.70
2017-09-13T12:30:19.839Z,99362.20
2017-09-13T12:32:47.308Z,99372.48
2017-09-13T12:35:14.772Z,99370.08
2017-09-13T12:37:42.205Z,99377.64
2017-09-13T12:40:09.665Z,99368.60
2017-09-13T12:42:37.108Z,99382.75
2017-09-13T12:45:04.576Z,99357.92
2017-09-13T12:47:32.108Z,99362.52
2017-09-13T12:49:59.567Z,99361.50
2017-09-13T12:52:27.001Z,99351.11
2017-09-13T12:54:54.474Z,99349.14
2017-09-13T12:57:22.031Z,99352.03
2017-09-13T12:59:49.495Z,99355.27
2017-09-13T13:02:16.951Z,99361.86
2017-09-13T13:04:44.429Z,99349.41
2017-09-13T13:07:11.984Z,99342.32
2017-09-13T13:09:39.584Z,99337.84
2017-09-13T13:12:07.073Z,99318.88
2017-09-13T13:14:34.519Z,99336.72
2017-09-13T13:17:02.004Z,99331.85
2017-09-13T13:19:29.438Z,99327.23
2017-09-13T13:21:56.903Z,99315.23
2017-09-13T13:24:24.334Z,99320.99
2017-09-13T13:26:51.823Z,99313.66
2017-09-13T13:29:19.280Z,99325.33
2017-09-13T13:31:46.748Z,99328.98
2017-09-13T13:34:14.299Z,99336.50
2017-09-13T13:36:41.863Z,99344.53
2017-09-13T13:39:09.302Z,99349.45
2017-09-13T13:41:36.876Z,99341.31
2017-09-13T13:44:04.664Z,99327.24
2017-09-13T13:46:32.146Z,99324.19
2017-09-13T13:48:59.637Z,99326.31
2017-09-13T13:51:27.219Z,99315.73
2017-09-13T13:53:54.757Z,99317.79
2017-09-13T13:56:22.198Z,99314.50
2017-09-13T13:58:49.663Z,99307.31
2017-09-13T14:01:17.132Z,99301.48
2017-09-13T14:03:44.625Z,99294.44
2017-09-13T14:06:12.066Z,99293.63
2017-09-13T14:08:39.532Z,99292.45
2017-09-13T14:11:06.978Z,99290.66
2017-09-13T14:13:34.469Z,99291.52
2017-09-13T14:16:01.915Z,99291.56
2017-09-13T14:18:29.392Z,99279.24
2017-09-13T14:20:56.883Z,99278.36
2017-09-13T14:23:24.351Z,99297.52
2017-09-13T14:25:51.782Z,99303.92
2017-09-13T14:28:19.242Z,99310.66
2017-09-13T14:30:46.819Z,99291.89
2017-09-13T14:33:14.308Z,99314.89
2017-09-13T14:35:41.759Z,99303.84
2017-09-13T14:38:09.294Z,99321.30
2017-09-13T14:40:36.726Z,99311.44
2017-09-13T14:43:04.408Z,99303.30
2017-09-13T14:45:31.860Z,99309.95
2017-09-13T14:47:59.290Z,99302.52
2017-09-13T14:50:26.745Z,99295.09
2017-09-13T14:52:54.246Z,99303.48
2017-09-13T14:55:21.925Z,99320.02
2017-09-13T14:57:49.358Z,99328.89
2017-09-13T15:00:16.923Z,99335.03
2017-09-13T15:02:44.467Z,99345.22
2017-09-13T15:05:12.021Z,99346.97
2017-09-13T15:07:39.466Z,99349.45
2017-09-13T15:10:06.926Z,99337.42
2017-09-13T15:12:34.368Z,99333.38
2017-09-13T15:15:01.836Z,99308.75
2017-09-13T15:17:29.313Z,99298.48
2017-09-13T15:19:56.852Z,99293.18
2017-09-13T15:22:24.318Z,99296.67
2017-09-13T15:24:51.788Z,99308.14
2017-09-13T15:27:19.235Z,99308.16
2017-09-13T15:29:46.801Z,99300.11
2017-09-13T15:32:14.267Z,99308.24
2017-09-13T15:34:41.802Z,99292.80
2017-09-13T15:37:09.258Z,99301.52
2017-09-13T15:39:36.705Z,99309.47
2017-09-13T15:42:04.299Z,99313.45
2017-09-13T15:44:31.733Z,99323.16
2017-09-13T15:46:59.200Z,99306.03
2017-09-13T15:49:26.646Z,99301.31
2017-09-13T15:51:54.107Z,99314.25
2017-09-13T15:54:21.571Z,99301.07
2017-09-13T15:56:49.041Z,99303.39
2017-09-13T15:59:16.508Z,99368.64
2017-09-13T16:01:44.014Z,99355.09
2017-09-13T16:04:11.490Z,99357.35
2017-09-13T16:06:38.981Z,99342.69
2017-09-13T16:09:06.442Z,99325.02
2017-09-13T16:11:33.911Z,99319.44
2017-09-13T16:14:01.356Z,99301.02
2017-09-13T16:16:28.831Z,99298.94
2017-09-13T16:18:56.269Z,99305.73
2017-09-13T16:21:23.737Z,99318.89
2017-09-13T16:23:51.182Z,99341.05
2017-09-13T16:26:18.625Z,99334.95
2017-09-13T16:28:46.091Z,99322.87
2017-09-13T16:31:13.522Z,99319.27
2017-09-13T16:33:40.989Z,99336.23
2017-09-13T16:36:08.517Z,99334.34
2017-09-13T16:38:35.990Z,99318.84
2017-09-13T16:41:03.432Z,99333.95
2017-09-13T16:43:30.885Z,99333.32
2017-09-13T16:45:58.470Z,99337.46
2017-09-13T16:48:25.938Z,99346.52
2017-09-13T16:50:53.607Z,99350.02
2017-09-13T16:53:21.076Z,99342.50
2017-09-13T16:55:48.516Z,99350.81
2017-09-13T16:58:16.049Z,99339.17
2017-09-13T17:00:43.486Z,99332.48
2017-09-13T17:03:10.949Z,99345.66
2017-09-13T17:05:38.839Z,99347.30
2017-09-13T17:08:06.340Z,99339.73
2017-09-13T17:10:33.782Z,99343.88
2017-09-13T17:13:01.290Z,99351.20
2017-09-13T17:15:28.718Z,99334.77
2017-09-13T17:17:57.260Z,99326.06
2017-09-13T17:20:24.727Z,99315.10
2017-09-13T17:22:52.207Z,99319.03
2017-09-13T17:25:19.711Z,99342.22
2017-09-13T17:27:47.179Z,99331.45
2017-09-13T17:30:14.744Z,99325.20
2017-09-13T17:32:42.284Z,99330.12
2017-09-13T17:35:09.730Z,99330.79
2017-09-13T17:37:37.172Z,99328.11
2017-09-13T17:40:04.636Z,99347.13
2017-09-13T17:42:32.070Z,99328.83
2017-09-13T17:44:59.529Z,99318.26
2017-09-13T17:47:26.962Z,99317.50
2017-09-13T17:49:54.440Z,99341.02
2017-09-13T17:52:21.913Z,99334.11
2017-09-13T17:54:49.375Z,99340.80
2017-09-13T17:57:16.806Z,99333.39
2017-09-13T17:59:44.298Z,99324.28
2017-09-13T18:02:11.765Z,99333.97
2017-09-13T18:04:39.241Z,99328.28
2017-09-13T18:07:06.673Z,99340.52
2017-09-13T18:09:34.234Z,99326.48
2017-09-13T18:12:01.662Z,99317.69
2017-09-13T18:14:29.118Z,99317.74
2017-09-13T18:16:56.563Z,99324.43
2017-09-13T18:19:24.046Z,99315.34
2017-09-13T18:21:51.502Z,99323.83
2017-09-13T18:24:18.953Z,99330.96
2017-09-13T18:26:46.398Z,99319.48
2017-09-13T18:29:14.227Z,99315.55
2017-09-13T18:31:41.738Z,99317.61
2017-09-13T18:34:09.199Z,99315.93
2017-09-13T18:36:36.631Z,99312.79
2017-09-13T18:39:04.070Z,99291.73
2017-09-13T18:41:31.587Z,99316.80
2017-09-13T18:43:59.043Z,99318.92
2017-09-13T18:46:26.511Z,99332.47
2017-09-13T18:48:53.942Z,99342.91
2017-09-13T18:51:21.430Z,99331.87
2017-09-13T18:53:48.873Z,99326.69
2017-09-13T18:56:16.439Z,99322.91
2017-09-13T18:58:43.966Z,99312.89
2017-09-13T19:01:11.421Z,99309.67
2017-09-13T19:03:38.889Z,99324.16
2017-09-13T19:06:06.343Z,99321.67
2017-09-13T19:08:33.783Z,99316.48
2017-09-13T19:11:01.255Z,99329.09
2017-09-13T19:13:28.694Z,99300.11
2017-09-13T19:15:56.422Z,99327.27
2017-09-13T19:18:23.924Z,99333.72
2017-09-13T19:20:51.374Z,99337.13
2017-09-13T19:23:18.844Z,99345.27
2017-09-13T19:25:46.315Z,99350.48
2017-09-13T19:28:13.818Z,99354.50
2017-09-13T19:30:41.305Z,99348.02
2017-09-13T19:33:08.762Z,99351.98
2017-09-13T19:35:36.241Z,99361.30
2017-09-13T19:38:03.731Z,99376.19
2017-09-13T19:40:31.248Z,99376.53
2017-09-13T19:42:58.738Z,99364.59
2017-09-13T19:45:26.180Z,99367.16
2017-09-13T19:47:53.732Z,99363.59
2017-09-13T19:50:21.187Z,99351.89
2017-09-13T19:52:48.688Z,99340.48
2017-09-13T19:55:16.187Z,99329.69
2017-09-13T19:57:43.752Z,99329.39
2017-09-13T20:00:11.198Z,99322.81
2017-09-13T20:02:38.662Z,99326.69
2017-09-13T20:05:06.128Z,99309.80
2017-09-13T20:07:33.589Z,99286.85
2017-09-13T20:10:01.045Z,99276.11
2017-09-13T20:12:28.579Z,99287.64
2017-09-13T20:14:56.049Z,99289.28
2017-09-13T20:17:23.503Z,99330.43
2017-09-13T20:19:50.966Z,99343.23
2017-09-13T20:22:18.535Z,99337.00
2017-09-13T20:24:46.075Z,99322.58
2017-09-13T20:27:13.821Z,99340.91
2017-09-13T20:29:41.252Z,99338.38
2017-09-13T20:32:08.767Z,99344.59
2017-09-13T20:34:36.311Z,99347.92
2017-09-13T20:37:03.773Z,99336.36
2017-09-13T20:39:31.224Z,99343.61
2017-09-13T20:41:58.689Z,99340.50
2017-09-13T20:44:26.132Z,99335.19
2017-09-13T20:46:53.587Z,99322.52
2017-09-13T20:49:21.106Z,99313.94
2017-09-13T20:51:48.533Z,99307.66
2017-09-13T20:54:16.011Z,99309.67
2017-09-13T20:56:43.457Z,99297.38
2017-09-13T20:59:10.929Z,99305.72
2017-09-13T21:01:38.371Z,99310.45
2017-09-13T21:04:05.839Z,99306.48
2017-09-13T21:06:33.352Z,99311.02
2017-09-13T21:09:00.825Z,99303.52
2017-09-13T21:11:28.362Z,99298.13
2017-09-13T21:13:55.924Z,99303.01
2017-09-13T21:16:23.381Z,99295.23
2017-09-13T21:18:50.837Z,99308.20
2017-09-13T21:21:18.274Z,99294.80
2017-09-13T21:23:45.745Z,99296.47
2017-09-13T21:26:13.209Z,99291.02
2017-09-13T21:28:40.684Z,99294.27
2017-09-13T21:31:08.129Z,99295.03
2017-09-13T21:33:35.609Z,99296.00
2017-09-13T21:36:03.128Z,99298.19
2017-09-13T21:38:30.588Z,99298.04
2017-09-13T21:40:58.046Z,99285.34
2017-09-13T21:43:25.511Z,99275.89
2017-09-13T21:45:53.065Z,99264.12
2017-09-13T21:48:20.527Z,99262.28
2017-09-13T21:50:48.079Z,99265.22
2017-09-13T21:53:15.554Z,99270.16
2017-09-13T21:55:43.008Z,99274.76
2017-09-13T21:58:10.468Z,99267.66
2017-09-13T22:00:38.206Z,99258.75
2017-09-13T22:03:05.672Z,99245.55
2017-09-13T22:05:33.114Z,99240.06
2017-09-13T22:08:00.647Z,99239.70
2017-09-13T22:10:28.140Z,99246.36
2017-09-13T22:12:55.726Z,99245.48
2017-09-13T22:15:23.158Z,99256.37
2017-09-13T22:17:50.623Z,99256.73
2017-09-13T22:20:18.062Z,99260.73
2017-09-13T22:22:45.515Z,99262.23
2017-09-13T22:25:12.980Z,99278.45
2017-09-13T22:27:40.417Z,99272.06
2017-09-13T22:30:07.879Z,99250.16
2017-09-13T22:32:35.317Z,99244.67
2017-09-13T22:35:02.788Z,99241.70
2017-09-13T22:37:30.276Z,99254.41
2017-09-13T22:39:57.767Z,99259.38
2017-09-13T22:42:25.225Z,99256.10
2017-09-13T22:44:52.711Z,99254.00
2017-09-13T22:47:21.304Z,99258.75
2017-09-13T22:49:48.784Z,99264.22
2017-09-13T22:52:16.322Z,99270.55
2017-09-13T22:54:43.778Z,99282.53
2017-09-13T22:57:11.234Z,99288.23
2017-09-13T22:59:38.696Z,99284.81
2017-09-13T23:02:06.153Z,99287.86
2017-09-13T23:04:33.617Z,99290.00
2017-09-13T23:07:01.070Z,99271.51
2017-09-13T23:09:28.630Z,99263.05
2017-09-13T23:11:56.198Z,99273.55
2017-09-13T23:14:23.666Z,99267.90
2017-09-13T23:16:51.096Z,99264.81
2017-09-13T23:19:18.546Z,99260.66
2017-09-13T23:21:45.983Z,99252.36
2017-09-13T23:24:13.438Z,99252.67
2017-09-13T23:26:40.872Z,99242.95
2017-09-13T23:29:08.336Z,99228.30
2017-09-13T23:31:35.836Z,99236.86
2017-09-13T23:34:03.291Z,99227.53
2017-09-13T23:36:30.851Z,99214.88
2017-09-13T23:38:58.320Z,99233.73
2017-09-13T23:41:25.749Z,99231.06
2017-09-13T23:43:53.323Z,99226.47
2017-09-13T23:46:20.758Z,99227.75
2017-09-13T23:48:48.222Z,99214.23
2017-09-13T23:51:15.728Z,99212.06
2017-09-13T23:53:43.186Z,99220.38
2017-09-13T23:56:10.692Z,99230.40
2017-09-13T23:58:38.168Z,99230.34
